Time;durP1;ratioP1;P1;durP2;ratioP2;P2;SDS_P1;SDS_P2;PMS_P1;PMS_P2;Temp;Humidity;BMP_temperature;BMP_pressure;BME280_temperature;BME280_humidity;BME280_pressure;Samples;Min_cycle;Max_cycle;Signal;HPM_P1;HPM_P2
2020/12/31 00:01:26;;;;;;;8.75;5.55;;;3.50;93.60;;;;;;5021580;28;20037;-80
2020/12/31 00:03:52;;;;;;;8.52;5.43;;;3.50;93.80;;;;;;5048144;28;20125;-80
2020/12/31 00:06:18;;;;;;;9.35;4.60;;;3.50;93.90;;;;;;5006272;28;20034;-80
2020/12/31 00:08:43;;;;;;;11.23;6.07;;;3.50;93.90;;;;;;5014336;28;20030;-79
2020/12/31 00:11:09;;;;;;;9.82;5.60;;;3.50;93.80;;;;;;5006925;28;20546;-79
2020/12/31 00:13:36;;;;;;;6.72;3.53;;;3.50;93.90;;;;;;5020100;28;20057;-79
2020/12/31 00:16:01;;;;;;;12.40;6.10;;;3.50;93.90;;;;;;5016914;28;20038;-80
2020/12/31 00:18:27;;;;;;;12.35;5.28;;;3.50;93.80;;;;;;5021498;28;20036;-79
2020/12/31 00:20:52;;;;;;;9.80;5.35;;;3.40;93.90;;;;;;4989301;28;20025;-79
2020/12/31 00:23:18;;;;;;;10.35;6.95;;;3.40;93.80;;;;;;5004745;28;20378;-79
2020/12/31 00:25:48;;;;;;;6.97;3.30;;;3.40;93.90;;;;;;5017872;28;20030;-79
2020/12/31 00:28:14;;;;;;;5.03;3.35;;;3.50;93.90;;;;;;5006540;28;20065;-79
2020/12/31 00:30:39;;;;;;;10.02;6.30;;;3.50;93.90;;;;;;5014432;28;20036;-79
2020/12/31 00:33:05;;;;;;;3.75;2.78;;;3.40;94.00;;;;;;5021497;28;20033;-79
2020/12/31 00:35:30;;;;;;;7.20;4.60;;;3.50;94.00;;;;;;5030172;28;20121;-79
2020/12/31 00:37:56;;;;;;;7.35;4.50;;;3.40;94.10;;;;;;4990523;28;20037;-79
2020/12/31 00:40:21;;;;;;;11.27;5.50;;;3.40;94.20;;;;;;5020262;28;20108;-79
2020/12/31 00:42:47;;;;;;;5.22;3.15;;;3.40;94.30;;;;;;5016947;28;20029;-80
2020/12/31 00:45:12;;;;;;;9.35;5.82;;;3.40;94.30;;;;;;5021041;28;20045;-79
2020/12/31 00:47:38;;;;;;;4.55;2.65;;;3.40;94.30;;;;;;5013036;28;20377;-80
2020/12/31 00:50:03;;;;;;;11.50;5.90;;;3.40;94.40;;;;;;5033051;28;20040;-80
2020/12/31 00:52:29;;;;;;;11.13;6.50;;;3.40;94.40;;;;;;5018822;28;20499;-81
2020/12/31 00:54:54;;;;;;;11.93;6.25;;;3.40;94.50;;;;;;4990031;28;20065;-80
2020/12/31 00:57:20;;;;;;;15.23;8.55;;;3.40;94.60;;;;;;4988453;28;20064;-80
2020/12/31 00:59:45;;;;;;;11.32;6.80;;;3.30;94.70;;;;;;5021914;28;20449;-80
2020/12/31 01:02:11;;;;;;;14.45;9.07;;;3.30;94.80;;;;;;5020036;28;20396;-80
2020/12/31 01:04:37;;;;;;;13.25;7.18;;;3.30;94.80;;;;;;5034580;28;20109;-80
2020/12/31 01:07:02;;;;;;;15.52;8.30;;;3.30;94.70;;;;;;5013380;28;21373;-80
2020/12/31 01:09:28;;;;;;;10.35;5.75;;;3.20;94.70;;;;;;5020013;28;20037;-80
2020/12/31 01:11:55;;;;;;;9.43;6.10;;;3.30;94.80;;;;;;5007243;28;20084;-81
2020/12/31 01:14:21;;;;;;;8.20;4.95;;;3.30;94.80;;;;;;5020646;28;20101;-80
2020/12/31 01:16:50;;;;;;;11.43;6.38;;;3.30;94.80;;;;;;5022069;28;20049;-80
2020/12/31 01:19:16;;;;;;;16.67;9.23;;;3.20;94.90;;;;;;5021213;28;20025;-80
2020/12/31 01:21:45;;;;;;;8.75;5.55;;;3.20;95.00;;;;;;5020370;28;20029;-80
2020/12/31 01:24:11;;;;;;;13.43;8.27;;;3.20;95.00;;;;;;5014424;28;20089;-81
2020/12/31 01:26:37;;;;;;;14.05;8.27;;;3.20;95.00;;;;;;5020930;28;20033;-79
2020/12/31 01:29:03;;;;;;;8.10;4.80;;;3.20;95.00;;;;;;5018496;28;20048;-80
2020/12/31 01:31:29;;;;;;;12.80;8.00;;;3.20;95.00;;;;;;5019858;28;20060;-80
2020/12/31 01:33:55;;;;;;;15.43;7.13;;;3.20;95.00;;;;;;5007352;28;20467;-81
2020/12/31 01:36:20;;;;;;;12.07;6.35;;;3.10;95.00;;;;;;5006019;28;20037;-80
2020/12/31 01:38:46;;;;;;;15.32;6.82;;;3.10;95.00;;;;;;5017512;28;20756;-81
2020/12/31 01:41:12;;;;;;;13.60;7.68;;;3.10;95.00;;;;;;5005792;28;20045;-80
2020/12/31 01:43:38;;;;;;;16.65;7.57;;;3.10;95.00;;;;;;5020230;28;20064;-80
2020/12/31 01:46:03;;;;;;;9.70;6.88;;;3.10;95.10;;;;;;5015003;28;20029;-79
2020/12/31 01:48:29;;;;;;;15.95;7.95;;;3.10;95.00;;;;;;5019679;28;20054;-80
2020/12/31 01:50:55;;;;;;;16.48;8.00;;;3.10;95.00;;;;;;5007609;28;20129;-80
2020/12/31 01:53:21;;;;;;;16.45;8.93;;;3.10;95.00;;;;;;5019844;28;20037;-80
2020/12/31 01:55:46;;;;;;;16.50;8.80;;;3.10;94.90;;;;;;5021404;28;20056;-80
2020/12/31 01:58:12;;;;;;;15.38;9.95;;;3.10;95.00;;;;;;5035326;28;20038;-80
2020/12/31 02:00:38;;;;;;;13.65;7.90;;;3.10;94.90;;;;;;5047828;28;20026;-79
2020/12/31 02:03:03;;;;;;;12.77;8.05;;;3.10;94.90;;;;;;4985071;28;20029;-79
2020/12/31 02:05:29;;;;;;;13.80;6.97;;;3.00;94.90;;;;;;5035386;28;20068;-80
2020/12/31 02:07:54;;;;;;;10.82;6.60;;;3.10;95.10;;;;;;5002997;28;20037;-80
2020/12/31 02:10:20;;;;;;;16.05;8.38;;;3.00;95.10;;;;;;5018348;28;20504;-80
2020/12/31 02:12:45;;;;;;;11.68;6.55;;;3.00;95.00;;;;;;5029554;28;20049;-80
2020/12/31 02:15:17;;;;;;;29.25;7.35;;;3.00;95.10;;;;;;5005551;28;20049;-80
2020/12/31 02:17:44;;;;;;;13.00;7.28;;;3.00;95.10;;;;;;5033651;28;20397;-79
2020/12/31 02:20:11;;;;;;;13.07;7.53;;;2.90;95.20;;;;;;4989664;28;20461;-80
2020/12/31 02:22:37;;;;;;;12.32;7.90;;;3.00;95.10;;;;;;5035558;28;20108;-80
2020/12/31 02:25:03;;;;;;;14.60;8.32;;;3.00;95.30;;;;;;5016074;28;20109;-80
2020/12/31 02:27:28;;;;;;;12.57;5.72;;;3.00;95.20;;;;;;5009839;28;20065;-80
2020/12/31 02:29:54;;;;;;;12.82;7.05;;;3.00;95.20;;;;;;5009542;28;20394;-80
2020/12/31 02:32:19;;;;;;;13.52;8.75;;;3.00;95.20;;;;;;5009693;28;20021;-79
2020/12/31 02:34:45;;;;;;;13.45;7.78;;;3.00;95.20;;;;;;5032879;28;20336;-80
2020/12/31 02:37:11;;;;;;;9.55;5.68;;;3.00;95.50;;;;;;5022519;28;20041;-80
2020/12/31 02:39:36;;;;;;;12.52;7.40;;;3.00;95.30;;;;;;5051479;28;20025;-80
2020/12/31 02:42:01;;;;;;;14.82;6.97;;;3.00;95.30;;;;;;5037352;28;20026;-79
2020/12/31 02:44:27;;;;;;;9.07;5.45;;;3.00;95.30;;;;;;5023703;28;20042;-80
2020/12/31 02:46:53;;;;;;;16.02;7.38;;;3.00;95.30;;;;;;4993148;28;20447;-80
2020/12/31 02:49:18;;;;;;;13.57;8.70;;;3.00;95.30;;;;;;5022088;28;20047;-79
2020/12/31 02:51:45;;;;;;;8.93;5.63;;;2.90;95.30;;;;;;5009141;28;20465;-80
2020/12/31 02:54:11;;;;;;;13.30;7.82;;;3.00;95.40;;;;;;5009154;28;20092;-79
2020/12/31 02:56:36;;;;;;;9.32;5.65;;;3.00;95.40;;;;;;5022967;28;20469;-79
2020/12/31 02:59:02;;;;;;;12.13;7.60;;;3.00;95.30;;;;;;5022216;28;20034;-79
2020/12/31 03:01:27;;;;;;;7.78;4.18;;;3.00;95.30;;;;;;5023378;28;20084;-79
2020/12/31 03:03:53;;;;;;;11.88;7.55;;;3.00;95.40;;;;;;5006322;28;20026;-79
2020/12/31 03:06:18;;;;;;;6.55;4.53;;;3.00;95.70;;;;;;5007171;28;20080;-77
2020/12/31 03:08:44;;;;;;;4.35;2.55;;;3.00;95.40;;;;;;5019203;28;20109;-76
2020/12/31 03:11:20;;;;;;;11.27;5.88;;;3.00;95.40;;;;;;5023024;28;20107;-77
2020/12/31 03:13:46;;;;;;;;;;;3.00;95.30;;;;;;5020741;28;20036;-76
2020/12/31 03:16:12;;;;;;;7.53;4.63;;;3.00;95.40;;;;;;5022409;28;19929;-76
2020/12/31 03:18:37;;;;;;;8.15;5.05;;;3.00;95.40;;;;;;5040237;28;20030;-76
2020/12/31 03:21:03;;;;;;;8.93;5.53;;;3.00;95.40;;;;;;5034378;28;20091;-77
2020/12/31 03:23:29;;;;;;;13.35;7.40;;;3.00;95.40;;;;;;5004963;28;20494;-76
2020/12/31 03:25:54;;;;;;;12.02;5.85;;;3.00;95.40;;;;;;5037234;28;20030;-76
2020/12/31 03:28:20;;;;;;;12.75;7.32;;;3.00;95.40;;;;;;5007238;28;20384;-76
2020/12/31 03:30:45;;;;;;;11.82;6.35;;;3.00;95.40;;;;;;5016644;28;20026;-76
2020/12/31 03:33:12;;;;;;;13.98;7.82;;;3.00;95.40;;;;;;5007056;28;20033;-76
2020/12/31 03:35:39;;;;;;;14.57;7.28;;;3.00;95.50;;;;;;5036767;28;20037;-76
2020/12/31 03:38:04;;;;;;;12.88;8.00;;;3.00;95.50;;;;;;5038687;28;20053;-77
2020/12/31 03:40:30;;;;;;;13.30;7.45;;;3.00;95.50;;;;;;5039596;28;20057;-77
2020/12/31 03:42:55;;;;;;;13.02;6.60;;;3.00;95.50;;;;;;5039196;28;20068;-76
2020/12/31 03:45:21;;;;;;;14.65;8.00;;;3.00;95.50;;;;;;5006893;28;20074;-76
2020/12/31 03:47:46;;;;;;;13.70;7.93;;;3.00;95.40;;;;;;5019607;28;20030;-77
2020/12/31 03:50:12;;;;;;;12.45;7.90;;;2.90;95.80;;;;;;5006005;28;20028;-76
2020/12/31 03:52:37;;;;;;;12.55;7.47;;;3.00;95.50;;;;;;5030765;28;20040;-76
2020/12/31 03:55:03;;;;;;;11.05;6.43;;;2.90;95.40;;;;;;5013514;28;20373;-76
2020/12/31 03:57:28;;;;;;;13.25;8.20;;;2.90;95.50;;;;;;5031338;28;20498;-77
2020/12/31 03:59:54;;;;;;;13.10;7.82;;;2.90;95.50;;;;;;4990194;28;20080;-77
2020/12/31 04:02:19;;;;;;;11.80;6.45;;;2.90;95.50;;;;;;5022789;28;20421;-76
2020/12/31 04:04:45;;;;;;;11.43;6.78;;;2.90;95.80;;;;;;5017579;28;20169;-76
2020/12/31 04:07:10;;;;;;;12.52;6.65;;;2.90;95.50;;;;;;5023303;28;20048;-76
2020/12/31 04:09:36;;;;;;;12.68;8.13;;;2.80;95.50;;;;;;5034803;28;20522;-75
2020/12/31 04:12:02;;;;;;;12.85;8.30;;;2.90;95.50;;;;;;5052302;28;20048;-76
2020/12/31 04:14:27;;;;;;;11.45;6.07;;;2.90;95.50;;;;;;5022343;28;20048;-76
2020/12/31 04:16:52;;;;;;;15.07;8.07;;;2.80;95.50;;;;;;5006468;28;20036;-76
2020/12/31 04:19:18;;;;;;;14.93;7.68;;;2.80;95.50;;;;;;5024174;28;20040;-76
2020/12/31 04:21:43;;;;;;;13.13;7.10;;;2.80;95.50;;;;;;5014982;28;20448;-76
2020/12/31 04:24:09;;;;;;;10.93;7.05;;;2.90;95.50;;;;;;5021954;28;20029;-75
2020/12/31 04:26:34;;;;;;;10.60;6.72;;;2.80;95.50;;;;;;5019964;28;20029;-76
2020/12/31 04:29:00;;;;;;;11.38;7.50;;;2.80;95.50;;;;;;5006711;28;20314;-76
2020/12/31 04:31:26;;;;;;;10.82;6.53;;;2.80;95.50;;;;;;5022261;28;20033;-76
2020/12/31 04:33:51;;;;;;;13.27;8.00;;;2.80;95.60;;;;;;5022740;28;20040;-76
2020/12/31 04:36:17;;;;;;;9.85;6.50;;;2.80;95.50;;;;;;5020936;28;20057;-76
2020/12/31 04:38:43;;;;;;;13.35;7.88;;;2.80;95.50;;;;;;5048744;28;20579;-76
2020/12/31 04:41:08;;;;;;;9.98;6.53;;;2.80;95.50;;;;;;5007157;28;20091;-76
2020/12/31 04:43:35;;;;;;;10.57;6.00;;;2.80;95.50;;;;;;5034075;28;20434;-76
2020/12/31 04:46:00;;;;;;;11.15;6.97;;;2.80;95.50;;;;;;5006398;28;20033;-76
2020/12/31 04:48:33;;;;;;;11.35;6.65;;;2.80;95.50;;;;;;5006528;28;20044;-76
2020/12/31 04:50:59;;;;;;;10.95;6.75;;;2.70;95.50;;;;;;5006891;28;20041;-76
2020/12/31 04:53:24;;;;;;;11.90;7.30;;;2.70;95.50;;;;;;5004836;28;20052;-76
2020/12/31 04:55:50;;;;;;;12.20;8.75;;;2.70;95.50;;;;;;4988486;28;20401;-76
2020/12/31 04:58:16;;;;;;;9.73;6.85;;;2.70;95.50;;;;;;5022145;28;20421;-76
2020/12/31 05:00:42;;;;;;;9.80;6.55;;;2.70;95.60;;;;;;5021194;28;20033;-76
2020/12/31 05:03:08;;;;;;;11.15;6.72;;;2.70;95.50;;;;;;5019808;28;20485;-76
2020/12/31 05:05:34;;;;;;;9.18;5.03;;;2.70;95.60;;;;;;5016372;28;20063;-76
2020/12/31 05:08:00;;;;;;;11.32;6.93;;;2.70;95.60;;;;;;5007540;28;20124;-76
2020/12/31 05:10:25;;;;;;;8.15;5.72;;;2.60;95.60;;;;;;5005112;28;20033;-76
2020/12/31 05:13:01;;;;;;;10.90;6.10;;;2.70;95.60;;;;;;4990688;28;20043;-76
2020/12/31 05:15:42;;;;;;;9.90;6.13;;;2.70;95.60;;;;;;5020948;28;20050;-76
2020/12/31 05:18:26;;;;;;;11.57;7.40;;;2.70;95.50;;;;;;5030216;28;20105;-76
2020/12/31 05:20:56;;;;;;;9.35;6.40;;;2.60;95.60;;;;;;5048244;28;20400;-76
2020/12/31 05:23:22;;;;;;;7.75;4.50;;;2.60;95.60;;;;;;5019561;28;20060;-76
2020/12/31 05:25:48;;;;;;;7.50;4.68;;;2.60;95.60;;;;;;5018722;28;20037;-76
2020/12/31 05:28:31;;;;;;;9.90;6.28;;;2.60;95.60;;;;;;5023024;28;20021;-76
2020/12/31 05:31:00;;;;;;;10.52;5.60;;;2.60;95.60;;;;;;4991440;28;20030;-76
2020/12/31 05:33:35;;;;;;;11.15;6.75;;;2.60;95.60;;;;;;5006047;28;20029;-76
2020/12/31 05:36:16;;;;;;;10.10;5.40;;;2.60;95.60;;;;;;5005600;28;20516;-76
2020/12/31 05:38:43;;;;;;;8.10;5.15;;;2.60;95.50;;;;;;5006187;28;20375;-76
2020/12/31 05:41:09;;;;;;;8.73;5.50;;;2.60;95.60;;;;;;5037526;28;20026;-76
2020/12/31 05:43:35;;;;;;;9.32;6.45;;;2.60;95.60;;;;;;5018825;28;20029;-76
2020/12/31 05:46:08;;;;;;;7.47;5.50;;;2.60;95.60;;;;;;5007742;28;20557;-75
2020/12/31 05:48:33;;;;;;;6.85;4.05;;;2.60;95.60;;;;;;5006039;28;21023;-75
2020/12/31 05:50:59;;;;;;;6.45;3.88;;;2.60;95.60;;;;;;5007515;28;20033;-76
2020/12/31 05:53:27;;;;;;;8.75;5.78;;;2.60;95.50;;;;;;5019002;28;20153;-76
2020/12/31 05:55:54;;;;;;;7.60;4.75;;;2.60;95.60;;;;;;5007133;28;20351;-75
2020/12/31 05:58:22;;;;;;;6.15;3.60;;;2.60;95.60;;;;;;5025231;28;20397;-76
2020/12/31 06:01:01;;;;;;;5.50;3.63;;;2.60;95.60;;;;;;5035033;28;20044;-75
2020/12/31 06:03:39;;;;;;;7.53;4.97;;;2.60;95.60;;;;;;5025761;28;20053;-76
2020/12/31 06:06:05;;;;;;;8.25;4.95;;;2.60;95.60;;;;;;5021700;28;20091;-76
2020/12/31 06:08:32;;;;;;;10.95;5.68;;;2.60;95.70;;;;;;5025618;28;20038;-76
2020/12/31 06:11:01;;;;;;;7.97;4.35;;;2.50;95.70;;;;;;4994668;28;20091;-76
2020/12/31 06:13:37;;;;;;;5.95;3.97;;;2.50;95.60;;;;;;5022624;28;20103;-76
2020/12/31 06:16:03;;;;;;;8.02;5.32;;;2.60;95.60;;;;;;5007609;28;20046;-76
2020/12/31 06:18:32;;;;;;;6.95;4.82;;;2.50;95.60;;;;;;5024676;28;20444;-76
2020/12/31 06:21:03;;;;;;;6.95;4.30;;;2.50;95.60;;;;;;5024341;28;20036;-76
2020/12/31 06:23:36;;;;;;;8.20;4.97;;;2.60;95.60;;;;;;5009604;28;20034;-75
2020/12/31 06:26:11;;;;;;;9.13;5.00;;;2.60;95.60;;;;;;5031415;28;20477;-75
2020/12/31 06:28:38;;;;;;;8.50;5.25;;;2.60;95.60;;;;;;5032680;28;20041;-76
2020/12/31 06:31:04;;;;;;;8.48;4.95;;;2.60;95.60;;;;;;5035334;28;20064;-76
2020/12/31 06:33:33;;;;;;;7.72;5.40;;;2.50;95.60;;;;;;5031477;28;20133;-76
2020/12/31 06:35:59;;;;;;;8.77;4.70;;;2.50;95.60;;;;;;5009521;28;20029;-76
2020/12/31 06:38:39;;;;;;;9.30;5.00;;;2.50;95.60;;;;;;5024263;28;20420;-76
2020/12/31 06:41:26;;;;;;;7.13;4.97;;;2.60;95.70;;;;;;4993223;28;20045;-76
2020/12/31 06:44:06;;;;;;;6.25;4.13;;;2.50;95.70;;;;;;5036636;28;20453;-76
2020/12/31 06:46:41;;;;;;;3.70;3.15;;;2.50;95.70;;;;;;5010051;28;20382;-77
2020/12/31 06:49:06;;;;;;;4.22;3.13;;;2.50;95.70;;;;;;4993740;28;20041;-76
2020/12/31 06:51:32;;;;;;;6.38;3.58;;;2.50;95.70;;;;;;5037519;28;20452;-76
2020/12/31 06:53:57;;;;;;;6.72;4.13;;;2.50;95.60;;;;;;5024811;28;20088;-76
2020/12/31 06:56:47;;;;;;;6.05;4.50;;;2.50;95.70;;;;;;5023450;28;20046;-77
2020/12/31 06:59:23;;;;;;;5.75;3.95;;;2.50;95.70;;;;;;5048198;28;20907;-77
2020/12/31 07:01:49;;;;;;;6.63;4.55;;;2.50;95.70;;;;;;5040916;28;20099;-76
2020/12/31 07:04:34;;;;;;;6.20;3.85;;;2.50;95.60;;;;;;5023773;28;20412;-76
2020/12/31 07:07:00;;;;;;;8.00;4.00;;;2.50;95.70;;;;;;5010062;28;20682;-75
2020/12/31 07:09:32;;;;;;;5.57;3.97;;;2.50;95.70;;;;;;5008147;28;20092;-76
2020/12/31 07:12:03;;;;;;;7.35;4.75;;;2.50;95.70;;;;;;5009535;28;20037;-75
2020/12/31 07:14:29;;;;;;;6.88;4.20;;;2.50;95.70;;;;;;5023841;28;20118;-76
2020/12/31 07:16:58;;;;;;;4.65;3.10;;;2.50;95.70;;;;;;5026276;28;20044;-76
2020/12/31 07:19:34;;;;;;;2.88;2.25;;;2.50;95.80;;;;;;5056721;28;20041;-76
2020/12/31 07:22:00;;;;;;;5.95;3.83;;;2.50;95.80;;;;;;5037811;28;20389;-76
2020/12/31 07:24:27;;;;;;;5.60;3.65;;;2.40;95.80;;;;;;5006128;28;20041;-76
2020/12/31 07:26:56;;;;;;;6.32;4.35;;;2.50;95.80;;;;;;5021738;28;20049;-76
2020/12/31 07:29:25;;;;;;;6.05;3.63;;;2.50;95.80;;;;;;5021136;28;20032;-77
2020/12/31 07:31:51;;;;;;;4.82;3.08;;;2.50;95.80;;;;;;5038268;28;20433;-76
2020/12/31 07:34:43;;;;;;;5.07;3.53;;;2.50;95.80;;;;;;5022463;28;20116;-76
2020/12/31 07:37:08;;;;;;;7.68;4.22;;;2.50;95.70;;;;;;5006495;28;20091;-76
2020/12/31 07:39:34;;;;;;;6.32;4.05;;;2.50;95.70;;;;;;5021114;28;20029;-76
2020/12/31 07:42:16;;;;;;;5.57;3.60;;;2.50;95.70;;;;;;5009377;28;20440;-76
2020/12/31 07:44:49;;;;;;;7.50;4.47;;;2.50;95.60;;;;;;5022712;28;20141;-75
2020/12/31 07:47:14;;;;;;;6.35;3.13;;;2.50;95.70;;;;;;5033528;28;20030;-76
2020/12/31 07:49:44;;;;;;;7.15;4.25;;;2.50;95.90;;;;;;5029436;28;20026;-75
2020/12/31 07:52:10;;;;;;;8.52;3.65;;;2.50;95.80;;;;;;5036361;28;20648;-75
2020/12/31 07:54:35;;;;;;;5.72;3.13;;;2.50;95.90;;;;;;5036333;28;20087;-76
2020/12/31 07:57:02;;;;;;;5.28;3.47;;;2.50;95.80;;;;;;5023429;28;20072;-76
2020/12/31 07:59:28;;;;;;;6.18;4.07;;;2.50;95.80;;;;;;5028785;28;20049;-77
2020/12/31 08:01:54;;;;;;;5.97;3.90;;;2.50;95.80;;;;;;5019833;28;20042;-76
2020/12/31 08:04:26;;;;;;;5.53;2.72;;;2.50;95.90;;;;;;5005007;28;20121;-77
2020/12/31 08:06:51;;;;;;;5.13;3.38;;;2.60;95.80;;;;;;5023327;28;20037;-76
2020/12/31 08:09:23;;;;;;;6.50;3.80;;;2.50;95.80;;;;;;5006206;28;20040;-76
2020/12/31 08:11:50;;;;;;;7.38;3.72;;;2.60;95.60;;;;;;5018362;28;20110;-75
2020/12/31 08:14:16;;;;;;;5.57;3.30;;;2.60;95.60;;;;;;5020212;28;20062;-75
2020/12/31 08:16:42;;;;;;;4.35;3.08;;;2.60;95.70;;;;;;5032950;28;20038;-75
2020/12/31 08:19:07;;;;;;;4.85;3.08;;;2.70;95.60;;;;;;5027210;28;20034;-77
2020/12/31 08:21:34;;;;;;;4.78;3.05;;;2.60;95.50;;;;;;5049807;28;20041;-75
2020/12/31 08:24:03;;;;;;;4.93;3.15;;;2.70;95.60;;;;;;5007232;28;20037;-76
2020/12/31 08:26:29;;;;;;;5.20;3.30;;;2.60;95.60;;;;;;5004454;28;20040;-77
2020/12/31 08:28:54;;;;;;;4.55;3.30;;;2.60;95.70;;;;;;5006016;28;20021;-76
2020/12/31 08:31:23;;;;;;;2.78;2.38;;;2.60;95.80;;;;;;5008286;28;20516;-76
2020/12/31 08:33:48;;;;;;;4.18;2.85;;;2.60;95.80;;;;;;5031308;28;20034;-76
2020/12/31 08:36:23;;;;;;;4.88;2.33;;;2.60;95.90;;;;;;5007396;28;20033;-76
2020/12/31 08:38:49;;;;;;;4.35;2.75;;;2.60;95.80;;;;;;5005486;28;20396;-76
2020/12/31 08:41:14;;;;;;;4.43;3.25;;;2.60;95.80;;;;;;5022597;28;20030;-76
2020/12/31 08:43:40;;;;;;;7.47;3.72;;;2.60;95.90;;;;;;5021335;28;20025;-77
2020/12/31 08:46:07;;;;;;;4.13;3.20;;;2.60;95.90;;;;;;5019754;28;20033;-76
2020/12/31 08:48:36;;;;;;;5.45;3.58;;;2.60;95.90;;;;;;5049995;28;20045;-76
2020/12/31 08:51:09;;;;;;;4.32;3.40;;;2.70;95.90;;;;;;5007865;28;20087;-75
2020/12/31 08:53:59;;;;;;;5.70;3.92;;;2.70;95.80;;;;;;5004864;28;20481;-76
2020/12/31 08:56:26;;;;;;;3.47;2.08;;;2.70;95.80;;;;;;5003546;28;20046;-76
2020/12/31 08:59:07;;;;;;;4.78;3.35;;;2.70;95.80;;;;;;5024140;28;20378;-75
2020/12/31 09:01:33;;;;;;;4.85;2.80;;;2.80;95.80;;;;;;5036997;28;20037;-76
2020/12/31 09:04:20;;;;;;;4.38;3.50;;;2.80;95.70;;;;;;5006785;28;20555;-75
2020/12/31 09:06:47;;;;;;;7.40;4.85;;;2.70;95.70;;;;;;5035012;28;20029;-75
2020/12/31 09:09:23;;;;;;;6.30;3.80;;;2.80;95.80;;;;;;5006027;28;20040;-76
2020/12/31 09:12:10;;;;;;;6.90;4.10;;;2.80;96.10;;;;;;5004684;28;20033;-75
2020/12/31 09:14:36;;;;;;;;;;;2.80;95.80;;;;;;5024106;28;20037;-75
2020/12/31 09:17:20;;;;;;;;;;;2.90;95.70;;;;;;5034555;28;19952;-75
2020/12/31 09:19:54;;;;;;;6.07;4.13;;;2.80;95.70;;;;;;5035493;28;20280;-75
2020/12/31 09:22:20;;;;;;;8.57;5.45;;;2.90;95.80;;;;;;5003653;28;20087;-76
2020/12/31 09:24:47;;;;;;;8.57;5.38;;;3.00;95.60;;;;;;5037060;28;20689;-75
2020/12/31 09:27:21;;;;;;;6.90;4.93;;;3.00;95.80;;;;;;5021342;28;20037;-77
2020/12/31 09:29:46;;;;;;;8.15;5.57;;;3.00;95.70;;;;;;5022190;28;20030;-76
2020/12/31 09:32:12;;;;;;;6.68;4.68;;;3.00;95.80;;;;;;5038385;28;20095;-76
2020/12/31 09:34:37;;;;;;;8.88;5.18;;;3.10;95.80;;;;;;5056090;28;20037;-76
2020/12/31 09:37:03;;;;;;;6.82;4.50;;;3.10;95.70;;;;;;5023424;28;20033;-76
2020/12/31 09:39:29;;;;;;;7.53;3.85;;;3.20;95.80;;;;;;5023376;28;20421;-75
2020/12/31 09:41:54;;;;;;;9.23;5.20;;;3.20;95.70;;;;;;4995052;28;20421;-76
2020/12/31 09:44:20;;;;;;;10.27;7.03;;;3.20;95.80;;;;;;5024607;28;20029;-76
2020/12/31 09:46:45;;;;;;;6.35;3.83;;;3.30;95.60;;;;;;5040119;28;20395;-76
2020/12/31 09:49:11;;;;;;;11.45;5.93;;;3.30;95.70;;;;;;5010834;28;20177;-75
2020/12/31 09:51:36;;;;;;;6.55;5.03;;;3.40;95.70;;;;;;4992311;28;20113;-75
2020/12/31 09:54:02;;;;;;;10.18;5.93;;;3.40;95.60;;;;;;5009037;28;20041;-76
2020/12/31 09:56:29;;;;;;;8.80;6.13;;;3.40;95.50;;;;;;5040527;28;20065;-76
2020/12/31 09:58:55;;;;;;;9.15;5.85;;;3.50;95.60;;;;;;5008972;28;20061;-76
2020/12/31 10:01:22;;;;;;;10.00;4.85;;;3.50;95.40;;;;;;5010135;28;20842;-75
2020/12/31 10:03:48;;;;;;;8.60;5.22;;;3.50;95.40;;;;;;5039333;28;20025;-75
2020/12/31 10:06:13;;;;;;;8.93;5.50;;;3.50;95.40;;;;;;5009750;28;20037;-75
2020/12/31 10:08:41;;;;;;;8.45;5.32;;;3.60;95.40;;;;;;4993761;28;20032;-76
2020/12/31 10:11:07;;;;;;;8.82;5.00;;;3.60;95.20;;;;;;5035065;28;20041;-75
2020/12/31 10:13:32;;;;;;;8.55;5.32;;;3.60;95.30;;;;;;5052634;28;20049;-76
2020/12/31 10:16:01;;;;;;;7.90;5.20;;;3.60;95.30;;;;;;5024997;28;20504;-75
2020/12/31 10:18:27;;;;;;;7.45;5.80;;;3.70;95.40;;;;;;5022882;28;20045;-75
2020/12/31 10:20:52;;;;;;;8.43;5.68;;;3.70;95.30;;;;;;4992858;28;20033;-75
2020/12/31 10:23:18;;;;;;;6.65;3.75;;;3.80;95.20;;;;;;5008837;28;20033;-76
2020/12/31 10:25:43;;;;;;;7.18;5.30;;;3.70;95.00;;;;;;5019780;28;20025;-76
2020/12/31 10:28:09;;;;;;;5.00;3.45;;;3.80;95.10;;;;;;5024319;28;20037;-75
2020/12/31 10:30:35;;;;;;;6.55;2.92;;;3.80;95.20;;;;;;5024961;28;20049;-75
2020/12/31 10:33:00;;;;;;;6.32;4.68;;;3.80;95.00;;;;;;5008966;28;20492;-75
2020/12/31 10:35:26;;;;;;;3.95;3.10;;;3.80;95.20;;;;;;5021189;28;20453;-75
2020/12/31 10:37:51;;;;;;;9.07;5.68;;;3.90;95.10;;;;;;4991413;28;20082;-75
2020/12/31 10:40:17;;;;;;;4.50;3.65;;;3.90;95.00;;;;;;5023829;28;20370;-75
2020/12/31 10:42:42;;;;;;;4.40;2.88;;;3.90;95.00;;;;;;5037771;28;20025;-75
2020/12/31 10:45:08;;;;;;;3.22;2.17;;;3.90;95.00;;;;;;5037203;28;20024;-75
2020/12/31 10:47:33;;;;;;;7.63;3.78;;;3.90;95.10;;;;;;5020061;28;20038;-75
2020/12/31 10:49:59;;;;;;;5.15;3.42;;;3.90;94.90;;;;;;5010651;28;20021;-74
2020/12/31 10:52:24;;;;;;;4.40;2.88;;;3.90;94.80;;;;;;5022695;28;20585;-74
2020/12/31 10:54:50;;;;;;;6.72;3.75;;;3.90;94.80;;;;;;5023670;28;20049;-74
2020/12/31 10:57:15;;;;;;;3.25;2.38;;;3.80;94.60;;;;;;5022542;28;20087;-74
2020/12/31 10:59:41;;;;;;;4.88;3.25;;;3.90;94.80;;;;;;5013195;28;20437;-74
2020/12/31 11:02:06;;;;;;;5.55;3.97;;;3.90;94.60;;;;;;5019299;28;20124;-74
2020/12/31 11:04:32;;;;;;;4.53;2.20;;;3.90;94.70;;;;;;5007862;28;20080;-75
2020/12/31 11:06:57;;;;;;;6.03;4.10;;;3.90;94.50;;;;;;5006534;28;20087;-75
2020/12/31 11:09:23;;;;;;;3.40;2.35;;;4.00;94.80;;;;;;5037714;28;20037;-75
2020/12/31 11:11:48;;;;;;;6.38;3.75;;;4.00;94.40;;;;;;5021967;28;20037;-73
2020/12/31 11:14:14;;;;;;;4.35;3.10;;;4.10;94.70;;;;;;5021294;28;20477;-75
2020/12/31 11:16:39;;;;;;;6.85;4.00;;;4.10;94.50;;;;;;5033427;28;20532;-74
2020/12/31 11:19:05;;;;;;;4.50;2.90;;;4.10;94.60;;;;;;5020136;28;20116;-74
2020/12/31 11:21:31;;;;;;;5.10;3.53;;;4.10;94.80;;;;;;5036645;28;20040;-73
2020/12/31 11:23:56;;;;;;;5.55;3.35;;;4.10;94.80;;;;;;5037822;28;20037;-75
2020/12/31 11:26:22;;;;;;;5.05;3.85;;;4.20;94.60;;;;;;5037674;28;20017;-74
2020/12/31 11:28:48;;;;;;;3.25;2.15;;;4.10;94.50;;;;;;5019757;28;20482;-75
2020/12/31 11:31:14;;;;;;;4.68;3.00;;;4.10;94.30;;;;;;5020128;28;20061;-76
2020/12/31 11:33:40;;;;;;;2.15;1.55;;;4.10;94.60;;;;;;5029325;28;20044;-75
2020/12/31 11:36:07;;;;;;;4.05;2.83;;;4.10;94.20;;;;;;5018396;28;20041;-75
2020/12/31 11:38:32;;;;;;;3.97;2.70;;;4.10;94.70;;;;;;5051151;28;20040;-76
2020/12/31 11:40:58;;;;;;;3.75;2.17;;;4.10;94.10;;;;;;4992505;28;20037;-75
2020/12/31 11:43:23;;;;;;;3.63;2.50;;;4.10;94.30;;;;;;5008705;28;20095;-75
2020/12/31 11:45:49;;;;;;;3.38;2.78;;;4.10;94.30;;;;;;5019241;28;20034;-75
2020/12/31 11:48:14;;;;;;;3.42;2.33;;;4.10;94.30;;;;;;5007502;28;20029;-75
2020/12/31 11:50:40;;;;;;;3.22;2.40;;;4.10;94.40;;;;;;5024066;28;20029;-76
2020/12/31 11:53:05;;;;;;;3.78;2.72;;;4.20;94.40;;;;;;5048684;28;20116;-75
2020/12/31 11:55:31;;;;;;;3.80;2.30;;;4.20;94.40;;;;;;5031730;28;20057;-76
2020/12/31 11:57:56;;;;;;;3.67;2.90;;;4.10;94.20;;;;;;4991954;28;20037;-75
2020/12/31 12:00:22;;;;;;;4.25;2.45;;;4.20;94.50;;;;;;5019378;28;20044;-75
2020/12/31 12:02:48;;;;;;;3.33;2.10;;;4.20;94.40;;;;;;5033979;28;20041;-75
2020/12/31 12:05:13;;;;;;;3.45;2.72;;;4.20;94.40;;;;;;5022542;28;20025;-76
2020/12/31 12:07:39;;;;;;;4.80;2.42;;;4.20;94.40;;;;;;5024595;28;20439;-75
2020/12/31 12:10:05;;;;;;;4.47;2.53;;;4.20;94.70;;;;;;5033716;28;20760;-74
2020/12/31 12:12:31;;;;;;;2.88;2.20;;;4.30;94.50;;;;;;4325047;28;10000060;-76
2020/12/31 12:14:56;;;;;;;4.13;2.58;;;4.20;94.40;;;;;;5013646;28;20076;-74
2020/12/31 12:17:22;;;;;;;3.40;2.20;;;4.10;94.50;;;;;;5018572;28;20041;-76
2020/12/31 12:19:47;;;;;;;3.22;1.80;;;4.10;94.70;;;;;;5031386;28;20060;-75
2020/12/31 12:22:13;;;;;;;2.50;1.80;;;4.20;94.60;;;;;;5018214;28;20071;-76
2020/12/31 12:24:38;;;;;;;5.22;2.17;;;4.10;94.50;;;;;;5016748;28;20034;-75
2020/12/31 12:27:06;;;;;;;3.17;2.40;;;4.10;94.50;;;;;;5012450;28;20121;-74
2020/12/31 12:29:32;;;;;;;2.38;1.75;;;4.20;94.60;;;;;;5029931;28;20141;-76
2020/12/31 12:31:57;;;;;;;4.50;2.10;;;4.10;94.40;;;;;;5018756;28;20140;-75
2020/12/31 12:34:23;;;;;;;2.08;1.80;;;4.10;94.50;;;;;;5003762;28;20263;-75
2020/12/31 12:36:51;;;;;;;2.42;2.15;;;4.00;94.50;;;;;;5045031;28;21541;-75
2020/12/31 12:39:17;;;;;;;2.78;2.20;;;4.00;94.50;;;;;;5017372;28;20040;-76
2020/12/31 12:41:43;;;;;;;3.13;2.10;;;4.10;94.40;;;;;;5017628;28;20037;-75
2020/12/31 12:44:08;;;;;;;2.67;1.83;;;4.10;94.50;;;;;;5018607;28;20048;-75
2020/12/31 12:46:43;;;;;;;3.17;2.26;;;4.10;94.40;;;;;;4971602;28;10001052;-76
2020/12/31 12:49:08;;;;;;;2.22;1.58;;;4.10;94.50;;;;;;5003183;28;20234;-76
2020/12/31 12:51:34;;;;;;;2.72;2.03;;;4.10;94.40;;;;;;5020069;28;20090;-76
2020/12/31 12:53:59;;;;;;;2.83;2.33;;;4.10;94.50;;;;;;5005708;28;20033;-74
2020/12/31 12:56:25;;;;;;;3.10;2.10;;;4.00;94.60;;;;;;4989493;28;20080;-74